Time;durP1;ratioP1;P1;durP2;ratioP2;P2;SDS_P1;SDS_P2;PMS_P1;PMS_P2;Temp;Humidity;BMP_temperature;BMP_pressure;BME280_temperature;BME280_humidity;BME280_pressure;Samples;Min_cycle;Max_cycle;Signal;HPM_P1;HPM_P2
2023/12/20 00:02:21;;;;;;;41.10;16.23;;;;;;;;;;5052197;28;20032;-63
2023/12/20 00:04:47;;;;;;;40.17;15.20;;;;;;;;;;5046768;28;20036;-62
2023/12/20 00:07:12;;;;;;;38.60;14.82;;;;;;;;;;5026522;28;20116;-62
2023/12/20 00:09:37;;;;;;;40.17;14.77;;;;;;;;;;5040065;28;20041;-62
2023/12/20 00:12:03;;;;;;;41.67;15.45;;;;;;;;;;5047244;28;20029;-63
2023/12/20 00:14:28;;;;;;;41.60;16.30;;;;;;;;;;5050800;28;20419;-63
2023/12/20 00:16:54;;;;;;;32.50;12.52;;;;;;;;;;5045579;28;20116;-62
2023/12/20 00:19:22;;;;;;;36.78;13.50;;;;;;;;;;5033377;28;20025;-64
2023/12/20 00:21:55;;;;;;;25.13;9.82;;;;;;;;;;5141802;27;20216;-61
2023/12/20 00:24:26;;;;;;;30.08;11.63;;;;;;;;;;5121917;28;20140;-62
2023/12/20 00:26:51;;;;;;;28.50;11.05;;;;;;;;;;5118093;28;20078;-62
2023/12/20 00:29:16;;;;;;;26.52;10.65;;;;;;;;;;5128697;28;20383;-63
2023/12/20 00:31:43;;;;;;;24.38;10.40;;;;;;;;;;5127556;28;20031;-62
2023/12/20 00:34:08;;;;;;;21.58;7.85;;;;;;;;;;5128960;28;20027;-62
2023/12/20 00:36:34;;;;;;;22.95;9.30;;;;;;;;;;5128542;28;20088;-62
2023/12/20 00:39:00;;;;;;;23.10;9.35;;;;;;;;;;5128313;28;20114;-62
2023/12/20 00:41:25;;;;;;;20.08;8.38;;;;;;;;;;5102598;28;20394;-62
2023/12/20 00:43:51;;;;;;;23.73;8.00;;;;;;;;;;5112755;28;20027;-62
2023/12/20 00:46:16;;;;;;;16.92;7.50;;;;;;;;;;5116774;28;20315;-62
2023/12/20 00:48:42;;;;;;;19.65;8.25;;;;;;;;;;5128062;28;20064;-61
2023/12/20 00:51:08;;;;;;;24.52;8.65;;;;;;;;;;5127539;28;20065;-61
2023/12/20 00:53:33;;;;;;;21.15;8.18;;;;;;;;;;5119320;28;20111;-62
2023/12/20 00:55:58;;;;;;;20.58;8.55;;;;;;;;;;5126395;28;20027;-61
2023/12/20 00:58:24;;;;;;;20.48;8.73;;;;;;;;;;5123608;28;20038;-62
2023/12/20 01:00:49;;;;;;;22.55;8.50;;;;;;;;;;5127574;28;20035;-62
2023/12/20 01:03:15;;;;;;;18.33;7.40;;;;;;;;;;5127138;28;20032;-62
2023/12/20 01:05:40;;;;;;;23.55;8.30;;;;;;;;;;5116600;28;20028;-62
2023/12/20 01:08:06;;;;;;;17.98;7.82;;;;;;;;;;5103413;28;20058;-62
2023/12/20 01:10:31;;;;;;;21.63;7.28;;;;;;;;;;5127131;28;20046;-61
2023/12/20 01:12:57;;;;;;;17.73;6.95;;;;;;;;;;5127283;28;20383;-62
2023/12/20 01:15:23;;;;;;;20.50;6.03;;;;;;;;;;5126003;28;20407;-62
2023/12/20 01:17:49;;;;;;;18.85;7.25;;;;;;;;;;5127237;28;20062;-62
2023/12/20 01:20:14;;;;;;;16.15;6.40;;;;;;;;;;5126770;28;20051;-62
2023/12/20 01:22:40;;;;;;;17.92;6.20;;;;;;;;;;5125949;28;20039;-62
2023/12/20 01:25:08;;;;;;;13.85;6.28;;;;;;;;;;5121544;28;20034;-62
2023/12/20 01:27:34;;;;;;;18.33;6.38;;;;;;;;;;5127045;28;20040;-62
2023/12/20 01:29:59;;;;;;;14.98;4.95;;;;;;;;;;5125305;28;20361;-62
2023/12/20 01:32:24;;;;;;;14.52;5.45;;;;;;;;;;5117632;28;20027;-62
2023/12/20 01:34:50;;;;;;;22.35;6.93;;;;;;;;;;5113791;28;20032;-61
2023/12/20 01:37:15;;;;;;;21.42;6.13;;;;;;;;;;5112724;28;20036;-62
2023/12/20 01:39:40;;;;;;;17.95;6.40;;;;;;;;;;5113781;28;20476;-61
2023/12/20 01:42:06;;;;;;;14.63;6.07;;;;;;;;;;5112791;28;20047;-61
2023/12/20 01:44:31;;;;;;;13.02;5.53;;;;;;;;;;5103332;28;20102;-61
2023/12/20 01:46:57;;;;;;;14.98;4.78;;;;;;;;;;5114161;28;20447;-60
2023/12/20 01:49:22;;;;;;;17.60;6.30;;;;;;;;;;5114002;28;20031;-60
2023/12/20 01:51:48;;;;;;;12.60;5.45;;;;;;;;;;5113353;28;20035;-60
2023/12/20 01:54:13;;;;;;;14.75;5.30;;;;;;;;;;5089473;28;20036;-60
2023/12/20 01:56:40;;;;;;;20.70;5.80;;;;;;;;;;5095400;28;20032;-60
2023/12/20 01:59:06;;;;;;;15.35;5.43;;;;;;;;;;5108477;28;20684;-61
2023/12/20 02:01:32;;;;;;;14.52;4.72;;;;;;;;;;5108882;28;20081;-60
2023/12/20 02:03:59;;;;;;;18.98;6.07;;;;;;;;;;5112871;28;20035;-60
2023/12/20 02:06:29;;;;;;;17.45;5.60;;;;;;;;;;5112132;28;20050;-61
2023/12/20 02:08:54;;;;;;;17.58;6.25;;;;;;;;;;5109998;28;20027;-61
2023/12/20 02:11:21;;;;;;;11.05;4.72;;;;;;;;;;5110640;28;20280;-61
2023/12/20 02:13:46;;;;;;;17.45;5.38;;;;;;;;;;5112238;28;20444;-61
2023/12/20 02:16:11;;;;;;;18.73;5.40;;;;;;;;;;5110526;28;20070;-60
2023/12/20 02:18:37;;;;;;;16.25;5.78;;;;;;;;;;5112794;28;20114;-60
2023/12/20 02:21:05;;;;;;;8.65;4.10;;;;;;;;;;5113401;28;20419;-62
2023/12/20 02:23:31;;;;;;;15.55;6.32;;;;;;;;;;5111029;28;20027;-60
2023/12/20 02:25:57;;;;;;;18.67;6.13;;;;;;;;;;5093388;28;20055;-60
2023/12/20 02:28:23;;;;;;;15.10;5.53;;;;;;;;;;5111000;28;20112;-60
2023/12/20 02:30:49;;;;;;;15.00;5.18;;;;;;;;;;5109099;28;20399;-60
2023/12/20 02:33:15;;;;;;;11.90;4.85;;;;;;;;;;5112256;28;20460;-60
2023/12/20 02:35:41;;;;;;;13.38;4.60;;;;;;;;;;5111097;28;20028;-60
2023/12/20 02:38:06;;;;;;;12.60;4.65;;;;;;;;;;5113073;28;20028;-61
2023/12/20 02:40:32;;;;;;;14.07;5.40;;;;;;;;;;5089789;28;20031;-59
2023/12/20 02:42:57;;;;;;;11.45;4.60;;;;;;;;;;5109260;28;20039;-61
2023/12/20 02:45:23;;;;;;;16.55;4.97;;;;;;;;;;5108870;28;20061;-60
2023/12/20 02:47:52;;;;;;;11.40;4.53;;;;;;;;;;5112561;28;20051;-59
2023/12/20 02:50:17;;;;;;;16.83;5.15;;;;;;;;;;5092795;28;20057;-59
2023/12/20 02:52:45;;;;;;;7.72;3.95;;;;;;;;;;5105882;28;20043;-58
2023/12/20 02:55:11;;;;;;;17.70;5.00;;;;;;;;;;5110549;28;20880;-59
2023/12/20 02:57:36;;;;;;;13.32;4.70;;;;;;;;;;5099505;28;20039;-60
2023/12/20 03:00:02;;;;;;;18.08;5.60;;;;;;;;;;5110242;28;20480;-60
2023/12/20 03:02:27;;;;;;;15.68;5.50;;;;;;;;;;5104203;28;20031;-57
2023/12/20 03:04:52;;;;;;;15.07;5.32;;;;;;;;;;5107870;28;20035;-59
2023/12/20 03:07:18;;;;;;;21.10;4.70;;;;;;;;;;5112721;28;20111;-59
2023/12/20 03:09:43;;;;;;;15.52;5.60;;;;;;;;;;5109885;28;20475;-58
2023/12/20 03:12:09;;;;;;;17.73;5.28;;;;;;;;;;5110933;28;20110;-57
2023/12/20 03:14:34;;;;;;;8.68;4.35;;;;;;;;;;5110079;28;20392;-57
2023/12/20 03:16:59;;;;;;;16.30;5.22;;;;;;;;;;5111949;28;20039;-58
2023/12/20 03:19:29;;;;;;;23.48;5.35;;;;;;;;;;5109754;28;20091;-59
2023/12/20 03:21:54;;;;;;;21.10;6.22;;;;;;;;;;5085599;28;20040;-58
2023/12/20 03:24:19;;;;;;;15.60;6.22;;;;;;;;;;5088465;28;20036;-59
2023/12/20 03:26:45;;;;;;;13.32;4.50;;;;;;;;;;5091248;28;20384;-58
2023/12/20 03:29:10;;;;;;;17.85;5.80;;;;;;;;;;5090859;28;20032;-58
2023/12/20 03:31:35;;;;;;;12.18;4.85;;;;;;;;;;5090677;28;20179;-57
2023/12/20 03:34:01;;;;;;;12.32;5.97;;;;;;;;;;5092371;28;20107;-58
2023/12/20 03:36:26;;;;;;;10.90;4.55;;;;;;;;;;5090144;28;20670;-59
2023/12/20 03:38:51;;;;;;;22.35;7.28;;;;;;;;;;5091447;28;20039;-59
2023/12/20 03:41:17;;;;;;;22.40;6.57;;;;;;;;;;5089118;28;20456;-59
2023/12/20 03:43:42;;;;;;;22.52;7.68;;;;;;;;;;5091391;28;20032;-59
2023/12/20 03:46:10;;;;;;;21.88;7.10;;;;;;;;;;5088943;28;20052;-60
2023/12/20 03:48:35;;;;;;;19.42;6.80;;;;;;;;;;5090630;28;20047;-60
2023/12/20 03:51:01;;;;;;;18.30;6.80;;;;;;;;;;5088000;28;20028;-59
2023/12/20 03:53:26;;;;;;;11.80;6.03;;;;;;;;;;5087388;28;20150;-60
2023/12/20 03:55:52;;;;;;;18.77;7.13;;;;;;;;;;5089811;28;20433;-58
2023/12/20 03:58:17;;;;;;;24.75;7.53;;;;;;;;;;5090075;28;20429;-60
2023/12/20 04:00:42;;;;;;;16.60;6.45;;;;;;;;;;5091841;28;20455;-59
2023/12/20 04:03:08;;;;;;;17.73;6.25;;;;;;;;;;5087129;28;20047;-61
2023/12/20 04:05:33;;;;;;;18.50;5.70;;;;;;;;;;5078865;28;20054;-59
2023/12/20 04:08:01;;;;;;;18.13;4.68;;;;;;;;;;5083833;28;20031;-60
2023/12/20 04:10:26;;;;;;;13.10;4.93;;;;;;;;;;5089376;28;20112;-59
2023/12/20 04:12:52;;;;;;;13.32;4.95;;;;;;;;;;5090203;28;20395;-60
2023/12/20 04:15:17;;;;;;;15.30;4.78;;;;;;;;;;5089440;28;20035;-61
2023/12/20 04:17:42;;;;;;;15.20;4.80;;;;;;;;;;5090536;28;20438;-60
2023/12/20 04:20:11;;;;;;;13.85;5.03;;;;;;;;;;5095894;28;20051;-61
2023/12/20 04:22:36;;;;;;;16.27;5.50;;;;;;;;;;5104864;28;20035;-60
2023/12/20 04:25:02;;;;;;;11.32;4.05;;;;;;;;;;5101995;28;20031;-60
2023/12/20 04:27:27;;;;;;;10.68;3.72;;;;;;;;;;5109501;28;20035;-59
2023/12/20 04:29:52;;;;;;;17.52;4.88;;;;;;;;;;5110087;28;20032;-58
2023/12/20 04:32:18;;;;;;;12.60;4.75;;;;;;;;;;5108488;28;20036;-60
2023/12/20 04:34:43;;;;;;;14.30;4.60;;;;;;;;;;5110401;28;20113;-58
2023/12/20 04:37:08;;;;;;;24.85;5.50;;;;;;;;;;5110423;28;20028;-60
2023/12/20 04:39:34;;;;;;;13.88;5.00;;;;;;;;;;5110044;28;20365;-59
2023/12/20 04:41:59;;;;;;;17.17;4.78;;;;;;;;;;5110377;28;20070;-59
2023/12/20 04:44:26;;;;;;;23.02;5.93;;;;;;;;;;5109569;28;20391;-59
2023/12/20 04:46:51;;;;;;;10.60;4.03;;;;;;;;;;5109959;28;20023;-59
2023/12/20 04:49:17;;;;;;;9.77;3.97;;;;;;;;;;5089155;28;20036;-60
2023/12/20 04:51:42;;;;;;;12.98;4.60;;;;;;;;;;5109612;28;20031;-59
2023/12/20 04:54:08;;;;;;;19.50;6.07;;;;;;;;;;5101851;28;20039;-59
2023/12/20 04:56:33;;;;;;;13.73;5.35;;;;;;;;;;5106482;28;20035;-59
2023/12/20 04:58:58;;;;;;;19.20;5.38;;;;;;;;;;5103877;28;20039;-60
2023/12/20 05:01:24;;;;;;;8.38;3.95;;;;;;;;;;5100957;28;20030;-57
2023/12/20 05:03:49;;;;;;;13.88;3.63;;;;;;;;;;5102040;28;20034;-58
2023/12/20 05:06:14;;;;;;;16.63;4.65;;;;;;;;;;5109907;28;20137;-60
2023/12/20 05:08:40;;;;;;;9.57;3.97;;;;;;;;;;5113613;28;20027;-59
2023/12/20 05:11:06;;;;;;;11.68;3.70;;;;;;;;;;5114093;28;20114;-58
2023/12/20 05:13:31;;;;;;;10.93;4.05;;;;;;;;;;5096450;28;20173;-59
2023/12/20 05:15:56;;;;;;;10.65;3.25;;;;;;;;;;5115634;28;20032;-58
2023/12/20 05:18:22;;;;;;;16.23;4.35;;;;;;;;;;5111734;28;20440;-59
2023/12/20 05:20:49;;;;;;;11.30;3.83;;;;;;;;;;5113286;28;20120;-59
2023/12/20 05:23:15;;;;;;;19.35;4.40;;;;;;;;;;5112847;28;20040;-60
2023/12/20 05:25:40;;;;;;;11.23;3.92;;;;;;;;;;5115552;28;20031;-59
2023/12/20 05:28:05;;;;;;;9.52;4.20;;;;;;;;;;5114755;28;20400;-59
2023/12/20 05:30:31;;;;;;;12.80;3.72;;;;;;;;;;5114540;28;20039;-58
2023/12/20 05:32:56;;;;;;;9.80;3.42;;;;;;;;;;5115093;28;20114;-59
2023/12/20 05:35:23;;;;;;;15.43;4.57;;;;;;;;;;5105727;28;20470;-58
2023/12/20 05:37:49;;;;;;;11.90;4.78;;;;;;;;;;5100140;28;20043;-59
2023/12/20 05:40:14;;;;;;;21.27;5.60;;;;;;;;;;5113138;28;20050;-61
2023/12/20 05:42:40;;;;;;;13.27;4.38;;;;;;;;;;5099336;28;20480;-61
2023/12/20 05:45:05;;;;;;;14.23;5.10;;;;;;;;;;5114283;28;20035;-58
2023/12/20 05:47:31;;;;;;;17.33;5.22;;;;;;;;;;5114514;28;20062;-61
2023/12/20 05:49:56;;;;;;;14.30;4.20;;;;;;;;;;5115043;28;20463;-59
2023/12/20 05:52:22;;;;;;;17.80;4.85;;;;;;;;;;5094180;28;20032;-61
2023/12/20 05:54:47;;;;;;;18.77;4.57;;;;;;;;;;5095001;28;20375;-62
2023/12/20 05:57:13;;;;;;;14.32;4.40;;;;;;;;;;5114568;28;20027;-61
2023/12/20 05:59:38;;;;;;;14.57;4.55;;;;;;;;;;5114044;28;20152;-61
2023/12/20 06:02:04;;;;;;;17.45;5.07;;;;;;;;;;5096412;28;20380;-61
2023/12/20 06:04:30;;;;;;;14.45;5.40;;;;;;;;;;5113842;28;20035;-61
2023/12/20 06:06:55;;;;;;;22.52;6.93;;;;;;;;;;5107172;28;20047;-61
2023/12/20 06:09:20;;;;;;;19.77;7.00;;;;;;;;;;5093070;28;20029;-61
2023/12/20 06:11:46;;;;;;;17.88;5.88;;;;;;;;;;5093967;28;20452;-62
2023/12/20 06:14:11;;;;;;;19.58;6.78;;;;;;;;;;5093759;28;20028;-61
2023/12/20 06:16:37;;;;;;;24.00;6.88;;;;;;;;;;5093226;28;20036;-62
2023/12/20 06:19:02;;;;;;;15.18;6.25;;;;;;;;;;5105246;28;20032;-62
2023/12/20 06:21:27;;;;;;;13.88;5.40;;;;;;;;;;5113401;28;20052;-67
2023/12/20 06:23:53;;;;;;;14.15;6.55;;;;;;;;;;5114279;28;20367;-60
2023/12/20 06:26:18;;;;;;;15.88;6.03;;;;;;;;;;5112472;28;20028;-61
2023/12/20 06:28:44;;;;;;;14.30;6.00;;;;;;;;;;5113770;28;20035;-62
2023/12/20 06:31:09;;;;;;;20.52;6.72;;;;;;;;;;5093524;28;20028;-61
2023/12/20 06:33:34;;;;;;;17.20;7.28;;;;;;;;;;5092102;28;20032;-61
2023/12/20 06:36:00;;;;;;;19.15;5.72;;;;;;;;;;5093489;28;20024;-62
2023/12/20 06:38:26;;;;;;;20.17;5.95;;;;;;;;;;5109887;28;20023;-61
2023/12/20 06:40:51;;;;;;;21.85;8.40;;;;;;;;;;5113893;28;20425;-61
2023/12/20 06:43:16;;;;;;;15.30;6.40;;;;;;;;;;5113567;28;20105;-60
2023/12/20 06:45:42;;;;;;;17.55;5.70;;;;;;;;;;5098181;28;20032;-60
2023/12/20 06:48:07;;;;;;;20.88;7.45;;;;;;;;;;5093119;28;20100;-60
2023/12/20 06:50:33;;;;;;;23.05;7.43;;;;;;;;;;5093265;28;20102;-60
2023/12/20 06:52:58;;;;;;;18.10;6.95;;;;;;;;;;5113433;28;20034;-61
2023/12/20 06:55:23;;;;;;;18.98;6.70;;;;;;;;;;5110897;28;20027;-60
2023/12/20 06:57:49;;;;;;;17.73;7.05;;;;;;;;;;5104397;28;20032;-60
2023/12/20 07:00:15;;;;;;;17.45;7.13;;;;;;;;;;5108048;28;20356;-61
2023/12/20 07:02:40;;;;;;;12.73;6.10;;;;;;;;;;5111176;28;20071;-60
2023/12/20 07:05:06;;;;;;;15.85;6.35;;;;;;;;;;5113281;28;20019;-61
2023/12/20 07:07:31;;;;;;;13.85;6.03;;;;;;;;;;5111768;28;20093;-61
2023/12/20 07:09:57;;;;;;;19.38;6.22;;;;;;;;;;5113096;28;20036;-68
2023/12/20 07:12:22;;;;;;;25.00;7.10;;;;;;;;;;5112327;28;20110;-61
2023/12/20 07:14:47;;;;;;;14.55;6.20;;;;;;;;;;5113191;28;20360;-61
2023/12/20 07:17:15;;;;;;;22.27;6.25;;;;;;;;;;5112884;28;20205;-61
2023/12/20 07:19:40;;;;;;;13.82;5.93;;;;;;;;;;5111991;28;20027;-60
2023/12/20 07:22:06;;;;;;;9.75;4.78;;;;;;;;;;5106806;28;20030;-61
2023/12/20 07:24:32;;;;;;;16.45;6.47;;;;;;;;;;5111930;28;20055;-62
2023/12/20 07:26:59;;;;;;;18.42;7.68;;;;;;;;;;5094979;28;20030;-61
2023/12/20 07:29:24;;;;;;;17.00;7.03;;;;;;;;;;5111627;28;20045;-61
2023/12/20 07:31:51;;;;;;;16.80;7.03;;;;;;;;;;5112706;28;20036;-61
2023/12/20 07:34:17;;;;;;;14.15;5.53;;;;;;;;;;5110779;28;20384;-62
2023/12/20 07:36:42;;;;;;;17.80;6.93;;;;;;;;;;5088512;28;20035;-61
2023/12/20 07:39:08;;;;;;;23.88;7.55;;;;;;;;;;5074447;28;20057;-61
2023/12/20 07:41:33;;;;;;;13.15;5.72;;;;;;;;;;5091161;28;20039;-61
2023/12/20 07:43:59;;;;;;;22.73;6.32;;;;;;;;;;5092422;28;20460;-61
2023/12/20 07:46:24;;;;;;;21.75;5.78;;;;;;;;;;5093607;28;20094;-60
2023/12/20 07:48:49;;;;;;;13.57;5.20;;;;;;;;;;5094490;28;20027;-60
2023/12/20 07:51:15;;;;;;;16.13;5.50;;;;;;;;;;5094832;28;20469;-61
2023/12/20 07:53:40;;;;;;;20.17;6.32;;;;;;;;;;5110411;28;20110;-62
2023/12/20 07:56:19;;;;;;;10.77;4.88;;;;;;;;;;5112642;28;20059;-62
2023/12/20 07:58:45;;;;;;;21.80;6.20;;;;;;;;;;5110923;28;20028;-61
2023/12/20 08:01:11;;;;;;;15.77;4.43;;;;;;;;;;5112027;28;20490;-61
2023/12/20 08:03:37;;;;;;;15.20;4.38;;;;;;;;;;5111890;28;20031;-61
2023/12/20 08:06:03;;;;;;;16.30;5.53;;;;;;;;;;5111258;28;20341;-61
2023/12/20 08:08:28;;;;;;;16.52;5.43;;;;;;;;;;5111589;28;20028;-60
2023/12/20 08:10:54;;;;;;;15.82;4.10;;;;;;;;;;5112674;28;20027;-62
2023/12/20 08:13:19;;;;;;;20.90;5.07;;;;;;;;;;5112322;28;20023;-60
2023/12/20 08:15:44;;;;;;;13.65;5.55;;;;;;;;;;5111497;28;20030;-59
2023/12/20 08:18:10;;;;;;;16.08;4.28;;;;;;;;;;5111642;28;20059;-61
2023/12/20 08:20:35;;;;;;;14.63;5.28;;;;;;;;;;5111139;28;20044;-60
2023/12/20 08:23:00;;;;;;;15.27;4.32;;;;;;;;;;5112293;28;20027;-60
2023/12/20 08:25:27;;;;;;;17.70;4.57;;;;;;;;;;5111413;28;20034;-60
2023/12/20 08:27:52;;;;;;;17.63;5.00;;;;;;;;;;5112159;28;20081;-60
2023/12/20 08:30:20;;;;;;;21.73;4.88;;;;;;;;;;5112187;28;20031;-61
2023/12/20 08:32:46;;;;;;;12.27;4.15;;;;;;;;;;5096354;28;20120;-60
2023/12/20 08:35:11;;;;;;;23.05;5.35;;;;;;;;;;5091471;28;20099;-59
2023/12/20 08:37:37;;;;;;;16.10;4.53;;;;;;;;;;5110960;28;20042;-60
2023/12/20 08:40:02;;;;;;;9.63;3.85;;;;;;;;;;5112062;28;20035;-60
2023/12/20 08:42:31;;;;;;;13.00;4.47;;;;;;;;;;5113289;28;20031;-59
2023/12/20 08:44:58;;;;;;;16.95;4.88;;;;;;;;;;5115568;28;20080;-60
2023/12/20 08:47:23;;;;;;;11.25;3.92;;;;;;;;;;5115101;28;20028;-61
2023/12/20 08:49:49;;;;;;;14.65;4.95;;;;;;;;;;5115454;28;20027;-59
2023/12/20 08:52:14;;;;;;;10.00;3.85;;;;;;;;;;5115786;28;20440;-61
2023/12/20 08:54:39;;;;;;;12.93;4.68;;;;;;;;;;5115166;28;20026;-60
2023/12/20 08:57:06;;;;;;;9.88;3.60;;;;;;;;;;5115830;28;20534;-61
2023/12/20 08:59:32;;;;;;;10.13;4.05;;;;;;;;;;5115147;28;20032;-61
2023/12/20 09:01:57;;;;;;;15.77;4.28;;;;;;;;;;5114690;28;20357;-61
2023/12/20 09:04:23;;;;;;;13.88;3.88;;;;;;;;;;5115886;28;20031;-60
2023/12/20 09:06:48;;;;;;;12.55;3.67;;;;;;;;;;5114136;28;20039;-60
2023/12/20 09:09:14;;;;;;;8.60;3.70;;;;;;;;;;5115768;28;20084;-61
2023/12/20 09:11:42;;;;;;;13.48;4.20;;;;;;;;;;5114792;28;20437;-60
2023/12/20 09:14:07;;;;;;;15.10;3.97;;;;;;;;;;5115423;28;20023;-60
2023/12/20 09:16:33;;;;;;;15.10;5.30;;;;;;;;;;5114720;28;20034;-60
2023/12/20 09:18:58;;;;;;;13.20;4.05;;;;;;;;;;5097051;28;20028;-59
2023/12/20 09:21:23;;;;;;;10.32;3.95;;;;;;;;;;5114753;28;20039;-61
2023/12/20 09:23:49;;;;;;;12.05;3.28;;;;;;;;;;5086962;28;20032;-61
2023/12/20 09:26:14;;;;;;;10.82;4.18;;;;;;;;;;5088156;28;20047;-62
2023/12/20 09:28:40;;;;;;;18.52;4.18;;;;;;;;;;5114252;28;20027;-61
2023/12/20 09:31:06;;;;;;;15.00;4.35;;;;;;;;;;5113527;28;20070;-61
2023/12/20 09:33:32;;;;;;;10.48;3.95;;;;;;;;;;5111782;28;20031;-61
2023/12/20 09:35:58;;;;;;;15.25;3.75;;;;;;;;;;5101909;28;20437;-60
2023/12/20 09:38:23;;;;;;;13.30;3.83;;;;;;;;;;5114926;28;20464;-61
2023/12/20 09:40:49;;;;;;;14.10;3.25;;;;;;;;;;5113876;28;20031;-61
2023/12/20 09:43:18;;;;;;;8.10;3.50;;;;;;;;;;5114845;28;20024;-60
2023/12/20 09:45:46;;;;;;;10.98;3.42;;;;;;;;;;5114143;28;20034;-61
2023/12/20 09:48:14;;;;;;;10.93;3.78;;;;;;;;;;5114699;28;20035;-60
2023/12/20 09:50:40;;;;;;;12.40;3.15;;;;;;;;;;5114104;28;20058;-61
2023/12/20 09:53:09;;;;;;;15.15;3.88;;;;;;;;;;5095793;28;20051;-61
2023/12/20 09:55:36;;;;;;;11.05;3.33;;;;;;;;;;5114007;28;20031;-61
2023/12/20 09:58:01;;;;;;;17.73;3.83;;;;;;;;;;5114813;28;20149;-60
2023/12/20 10:00:27;;;;;;;13.15;3.47;;;;;;;;;;5114506;28;20114;-61
2023/12/20 10:03:00;;;;;;;12.90;4.35;;;;;;;;;;5113715;28;20024;-61
2023/12/20 10:05:30;;;;;;;17.55;3.95;;;;;;;;;;5114692;28;20028;-61
2023/12/20 10:07:55;;;;;;;9.05;3.42;;;;;;;;;;5112645;28;20465;-61
2023/12/20 10:10:21;;;;;;;13.85;4.20;;;;;;;;;;5112462;28;20045;-60
2023/12/20 10:13:08;;;;;;;10.75;3.28;;;;;;;;;;5100288;28;20422;-60
2023/12/20 10:15:34;;;;;;;12.07;3.78;;;;;;;;;;5092662;28;20516;-58
2023/12/20 10:18:00;;;;;;;14.20;3.55;;;;;;;;;;5111938;28;20064;-59
2023/12/20 10:20:25;;;;;;;9.48;3.53;;;;;;;;;;5113737;28;20104;-61
2023/12/20 10:22:53;;;;;;;13.80;4.63;;;;;;;;;;5112504;28;20039;-58
2023/12/20 10:25:19;;;;;;;10.27;3.58;;;;;;;;;;5093813;28;20028;-60
2023/12/20 10:27:45;;;;;;;13.50;4.57;;;;;;;;;;5092692;28;20035;-60
2023/12/20 10:30:11;;;;;;;13.15;4.22;;;;;;;;;;5112394;28;20035;-60
2023/12/20 10:32:36;;;;;;;14.23;4.30;;;;;;;;;;5094543;28;20027;-60
2023/12/20 10:35:02;;;;;;;15.57;3.90;;;;;;;;;;5113339;28;20071;-60
2023/12/20 10:37:28;;;;;;;11.63;3.70;;;;;;;;;;5113404;28;20027;-60
2023/12/20 10:39:57;;;;;;;10.27;3.45;;;;;;;;;;5106920;28;20132;-61
2023/12/20 10:42:25;;;;;;;12.45;3.95;;;;;;;;;;5102895;28;20050;-60
2023/12/20 10:44:51;;;;;;;14.63;4.70;;;;;;;;;;5106108;28;20161;-60
2023/12/20 10:47:17;;;;;;;17.60;4.60;;;;;;;;;;5093310;28;20351;-60
2023/12/20 10:49:44;;;;;;;19.52;5.45;;;;;;;;;;5092192;28;20366;-60
2023/12/20 10:52:11;;;;;;;10.13;3.92;;;;;;;;;;5106095;28;20131;-61
2023/12/20 10:54:37;;;;;;;8.63;3.70;;;;;;;;;;5109005;28;20036;-60
2023/12/20 10:57:06;;;;;;;13.23;4.65;;;;;;;;;;5103597;28;20040;-60
2023/12/20 10:59:33;;;;;;;10.85;3.65;;;;;;;;;;5103845;28;20468;-64
2023/12/20 11:01:59;;;;;;;13.05;3.97;;;;;;;;;;5092769;28;20036;-60
2023/12/20 11:04:50;;;;;;;11.95;3.72;;;;;;;;;;5092093;28;20032;-61
2023/12/20 11:07:32;;;;;;;14.13;4.07;;;;;;;;;;5093489;28;20036;-60
2023/12/20 11:10:02;;;;;;;9.63;3.65;;;;;;;;;;5092710;28;20047;-60
2023/12/20 11:13:17;;;;;;;10.05;3.58;;;;;;;;;;5109354;28;20074;-61
2023/12/20 11:15:43;;;;;;;11.82;3.80;;;;;;;;;;5009100;28;20160;-60
2023/12/20 11:18:09;;;;;;;11.40;3.53;;;;;;;;;;5006150;28;20515;-60
2023/12/20 11:20:39;;;;;;;11.35;3.75;;;;;;;;;;5009403;28;20088;-59
2023/12/20 11:23:06;;;;;;;13.38;3.55;;;;;;;;;;5003093;28;20122;-60
2023/12/20 11:25:54;;;;;;;8.30;3.42;;;;;;;;;;5003651;28;20041;-60
2023/12/20 11:28:24;;;;;;;10.93;3.85;;;;;;;;;;5009494;28;20045;-62
2023/12/20 11:30:50;;;;;;;18.02;4.63;;;;;;;;;;5009079;28;20120;-62
2023/12/20 11:33:16;;;;;;;11.98;3.95;;;;;;;;;;5004240;28;20038;-62
2023/12/20 11:35:45;;;;;;;12.73;4.07;;;;;;;;;;4989607;28;20089;-61
2023/12/20 11:38:11;;;;;;;10.75;3.92;;;;;;;;;;5010047;28;20033;-62
2023/12/20 11:40:37;;;;;;;11.88;4.18;;;;;;;;;;4991104;28;20054;-62
2023/12/20 11:43:04;;;;;;;10.50;4.35;;;;;;;;;;4998669;28;20056;-61
2023/12/20 11:45:30;;;;;;;9.57;3.80;;;;;;;;;;5019713;28;20475;-61
2023/12/20 11:47:57;;;;;;;10.45;4.28;;;;;;;;;;5111563;28;20027;-60
2023/12/20 11:50:23;;;;;;;10.45;4.43;;;;;;;;;;5100828;28;20067;-61
2023/12/20 11:52:52;;;;;;;13.85;4.35;;;;;;;;;;5096631;28;20074;-61
2023/12/20 11:55:17;;;;;;;10.88;4.15;;;;;;;;;;5101689;28;20472;-61
2023/12/20 11:57:44;;;;;;;19.95;5.90;;;;;;;;;;5104999;28;20031;-61
2023/12/20 12:00:10;;;;;;;10.00;4.68;;;;;;;;;;5094466;28;20032;-61
2023/12/20 12:02:36;;;;;;;15.10;4.95;;;;;;;;;;5095489;28;20027;-61
2023/12/20 12:05:02;;;;;;;16.02;5.65;;;;;;;;;;5081502;28;20118;-61
2023/12/20 12:07:27;;;;;;;21.50;6.28;;;;;;;;;;5096674;28;20032;-61
2023/12/20 12:09:53;;;;;;;17.52;5.18;;;;;;;;;;5088604;28;20031;-61
2023/12/20 12:12:19;;;;;;;11.93;4.88;;;;;;;;;;5110058;28;20241;-62
2023/12/20 12:14:45;;;;;;;12.50;5.15;;;;;;;;;;5106353;28;20028;-61
2023/12/20 12:17:14;;;;;;;12.90;5.30;;;;;;;;;;5104177;28;20097;-61
2023/12/20 12:19:43;;;;;;;18.00;7.10;;;;;;;;;;5100447;28;20037;-61
2023/12/20 12:22:14;;;;;;;9.40;5.20;;;;;;;;;;5086841;28;20502;-61
2023/12/20 12:24:49;;;;;;;11.43;4.88;;;;;;;;;;5095891;28;20468;-61
2023/12/20 12:27:15;;;;;;;15.73;6.82;;;;;;;;;;5105643;28;20107;-62
2023/12/20 12:30:00;;;;;;;19.52;6.20;;;;;;;;;;5084482;28;20073;-62
2023/12/20 12:32:25;;;;;;;19.88;7.35;;;;;;;;;;5095947;28;20028;-63
2023/12/20 12:34:51;;;;;;;19.23;6.80;;;;;;;;;;5103044;28;20119;-63
2023/12/20 12:37:16;;;;;;;20.23;7.35;;;;;;;;;;5100026;28;20385;-63
2023/12/20 12:39:42;;;;;;;26.73;6.72;;;;;;;;;;5099934;28;20062;-63
2023/12/20 12:42:07;;;;;;;18.80;7.63;;;;;;;;;;5101778;28;20065;-63
2023/12/20 12:44:32;;;;;;;17.83;7.88;;;;;;;;;;5097700;28;20063;-63
2023/12/20 12:46:58;;;;;;;21.77;7.20;;;;;;;;;;5102915;28;20035;-62
2023/12/20 12:49:23;;;;;;;12.65;5.43;;;;;;;;;;5106289;28;20023;-62
2023/12/20 12:51:49;;;;;;;22.92;6.55;;;;;;;;;;5109635;28;20089;-62
2023/12/20 12:54:16;;;;;;;13.60;6.55;;;;;;;;;;5111980;28;20038;-61
2023/12/20 12:56:42;;;;;;;21.35;6.82;;;;;;;;;;5110673;28;20152;-61
2023/12/20 12:59:08;;;;;;;15.27;6.38;;;;;;;;;;5097884;28;20107;-62
2023/12/20 13:01:33;;;;;;;22.50;5.85;;;;;;;;;;5111502;28;20035;-62
2023/12/20 13:04:01;;;;;;;12.70;5.85;;;;;;;;;;5110107;28;20898;-62
2023/12/20 13:06:26;;;;;;;14.55;5.00;;;;;;;;;;5111884;28;20063;-64
2023/12/20 13:08:52;;;;;;;10.82;4.75;;;;;;;;;;5111028;28;20047;-63
2023/12/20 13:11:17;;;;;;;17.17;6.18;;;;;;;;;;5111724;28;20141;-62
2023/12/20 13:13:43;;;;;;;18.65;6.53;;;;;;;;;;5087422;28;20383;-62
2023/12/20 13:16:08;;;;;;;18.10;5.70;;;;;;;;;;5111223;28;20088;-63
2023/12/20 13:18:33;;;;;;;11.75;4.70;;;;;;;;;;5086457;28;20380;-62
2023/12/20 13:20:59;;;;;;;19.38;6.47;;;;;;;;;;5090518;28;20603;-63
2023/12/20 13:23:24;;;;;;;15.23;6.30;;;;;;;;;;5091002;28;20111;-62
2023/12/20 13:25:50;;;;;;;18.92;5.78;;;;;;;;;;5090451;28;20024;-62
2023/12/20 13:28:15;;;;;;;14.85;5.20;;;;;;;;;;5091882;28;20032;-62
2023/12/20 13:30:41;;;;;;;16.95;6.18;;;;;;;;;;5094293;28;20038;-62
2023/12/20 13:33:06;;;;;;;15.40;7.07;;;;;;;;;;5076622;28;20034;-62
2023/12/20 13:35:33;;;;;;;20.33;7.18;;;;;;;;;;5092013;28;20371;-62
2023/12/20 13:37:58;;;;;;;19.35;6.72;;;;;;;;;;5114418;28;20039;-62
2023/12/20 13:40:24;;;;;;;13.70;5.13;;;;;;;;;;5115097;28;20032;-62
2023/12/20 13:42:49;;;;;;;21.35;7.88;;;;;;;;;;5113837;28;20049;-62
2023/12/20 13:45:15;;;;;;;15.50;7.07;;;;;;;;;;5115130;28;20031;-61
2023/12/20 13:47:40;;;;;;;20.08;7.57;;;;;;;;;;5113332;28;20032;-61
2023/12/20 13:50:06;;;;;;;14.60;6.72;;;;;;;;;;5114065;28;20059;-62
2023/12/20 13:52:31;;;;;;;13.60;6.80;;;;;;;;;;5114706;28;20080;-62
2023/12/20 13:54:57;;;;;;;10.68;5.43;;;;;;;;;;5103309;28;20074;-62
2023/12/20 13:57:22;;;;;;;20.45;7.72;;;;;;;;;;5106976;28;20036;-62
2023/12/20 13:59:48;;;;;;;15.35;7.40;;;;;;;;;;5113570;28;20494;-62
2023/12/20 14:02:13;;;;;;;12.98;6.40;;;;;;;;;;5107030;28;20115;-61
2023/12/20 14:04:39;;;;;;;16.00;8.20;;;;;;;;;;5097412;28;20043;-61
2023/12/20 14:07:05;;;;;;;18.73;8.40;;;;;;;;;;5112247;28;20115;-61
2023/12/20 14:09:30;;;;;;;20.65;6.95;;;;;;;;;;5108342;28;20028;-60
2023/12/20 14:11:55;;;;;;;15.55;7.93;;;;;;;;;;5113028;28;20038;-60
2023/12/20 14:14:21;;;;;;;21.30;8.40;;;;;;;;;;5113082;28;20459;-61
2023/12/20 14:16:46;;;;;;;25.83;9.13;;;;;;;;;;5113344;28;20118;-61
2023/12/20 14:19:12;;;;;;;24.67;9.18;;;;;;;;;;5114359;28;20035;-61
2023/12/20 14:21:37;;;;;;;16.17;7.60;;;;;;;;;;5113654;28;20048;-60
2023/12/20 14:24:03;;;;;;;24.15;10.45;;;;;;;;;;5112173;28;20100;-61
2023/12/20 14:26:30;;;;;;;14.05;7.90;;;;;;;;;;5113238;28;20499;-61